createdAt,value
2018-06-19T07:05:28.898Z,204.00
2018-06-19T07:06:31.409Z,212.00
2018-06-19T07:07:29.083Z,204.00
2018-06-19T07:08:30.289Z,188.00
2018-06-19T07:09:28.807Z,204.00
2018-06-19T07:10:28.803Z,200.00
2018-06-19T07:11:29.071Z,200.00
2018-06-19T07:12:29.049Z,208.00
2018-06-19T07:13:29.002Z,204.00
2018-06-19T07:14:28.940Z,216.00
2018-06-19T07:15:30.730Z,216.00
2018-06-19T07:16:28.935Z,220.00
2018-06-19T07:17:28.902Z,224.00
2018-06-19T07:18:29.115Z,180.00
2018-06-19T07:19:28.970Z,164.00
2018-06-19T07:20:28.941Z,176.00
2018-06-19T07:21:28.905Z,172.00
2018-06-19T07:22:28.929Z,160.00
2018-06-19T07:23:29.592Z,188.00
2018-06-19T07:24:28.928Z,156.00
2018-06-19T07:25:28.791Z,172.00
2018-06-19T07:26:28.796Z,200.00
2018-06-19T07:27:28.918Z,204.00
2018-06-19T07:28:28.619Z,208.00
2018-06-19T07:29:28.650Z,208.00
2018-06-19T07:30:28.586Z,200.00
2018-06-19T07:31:28.564Z,196.00
2018-06-19T07:32:28.849Z,192.00
2018-06-19T07:33:28.828Z,192.00
2018-06-19T07:34:28.785Z,156.00
2018-06-19T07:35:28.554Z,160.00
2018-06-19T07:36:28.759Z,152.00
2018-06-19T07:37:28.909Z,160.00
2018-06-19T07:38:28.700Z,172.00
2018-06-19T07:39:28.702Z,164.00
2018-06-19T07:40:28.728Z,156.00
2018-06-19T07:41:28.700Z,164.00
2018-06-19T07:42:28.700Z,152.00
2018-06-19T07:43:28.730Z,152.00
2018-06-19T07:44:28.637Z,144.00
2018-06-19T07:45:28.618Z,144.00
2018-06-19T07:46:28.646Z,128.00
2018-06-19T07:47:28.680Z,116.00
2018-06-19T07:48:28.574Z,116.00
2018-06-19T07:49:28.596Z,120.00
2018-06-19T07:50:28.568Z,120.00
2018-06-19T07:51:28.362Z,116.00
2018-06-19T07:52:28.605Z,104.00
2018-06-19T07:53:28.559Z,112.00
2018-06-19T07:54:28.558Z,124.00
2018-06-19T07:55:28.660Z,112.00
2018-06-19T07:56:29.106Z,124.00
2018-06-19T07:57:28.588Z,124.00
2018-06-19T07:58:28.516Z,124.00
2018-06-19T07:59:28.488Z,128.00
2018-06-19T08:00:28.442Z,176.00
2018-06-19T08:01:28.595Z,184.00
2018-06-19T08:02:28.470Z,144.00
2018-06-19T08:03:28.475Z,148.00
2018-06-19T08:04:28.515Z,148.00
2018-06-19T08:05:28.448Z,156.00
2018-06-19T08:06:28.381Z,140.00
2018-06-19T08:07:28.423Z,136.00
2018-06-19T08:08:29.178Z,132.00
2018-06-19T08:09:28.383Z,124.00
2018-06-19T08:10:28.376Z,128.00
2018-06-19T08:11:28.377Z,116.00
2018-06-19T08:12:28.361Z,136.00
2018-06-19T08:13:28.369Z,128.00
2018-06-19T08:14:28.281Z,144.00
2018-06-19T08:15:28.321Z,148.00
2018-06-19T08:16:28.320Z,144.00
2018-06-19T08:17:28.377Z,112.00
2018-06-19T08:18:28.311Z,120.00
2018-06-19T08:19:28.299Z,112.00
2018-06-19T08:20:28.271Z,100.00
2018-06-19T08:21:28.271Z,100.00
2018-06-19T08:22:28.251Z,80.00
2018-06-19T08:23:28.294Z,96.00
2018-06-19T08:24:28.239Z,92.00
2018-06-19T08:25:28.238Z,96.00
2018-06-19T08:26:28.198Z,96.00
2018-06-19T08:27:28.216Z,108.00
2018-06-19T08:28:28.220Z,88.00
2018-06-19T08:29:28.185Z,104.00
2018-06-19T08:30:28.210Z,112.00
2018-06-19T08:31:28.171Z,124.00
2018-06-19T08:32:28.311Z,120.00
2018-06-19T08:33:28.038Z,124.00
2018-06-19T08:34:28.168Z,116.00
2018-06-19T08:35:27.873Z,124.00
2018-06-19T08:36:28.057Z,116.00
2018-06-19T08:37:28.085Z,112.00
2018-06-19T08:38:28.093Z,104.00
2018-06-19T08:39:27.999Z,100.00
2018-06-19T08:40:28.073Z,100.00
2018-06-19T08:41:28.047Z,92.00
2018-06-19T08:42:27.963Z,100.00
2018-06-19T08:43:28.042Z,96.00
2018-06-19T08:44:28.055Z,92.00
2018-06-19T08:45:27.983Z,80.00
2018-06-19T08:46:28.018Z,88.00
2018-06-19T08:47:27.714Z,80.00
2018-06-19T08:48:27.975Z,80.00
2018-06-19T08:49:27.946Z,76.00
2018-06-19T08:50:27.859Z,84.00
2018-06-19T08:51:27.964Z,80.00
2018-06-19T08:52:27.857Z,88.00
2018-06-19T08:53:27.928Z,104.00
2018-06-19T08:54:27.877Z,112.00
2018-06-19T08:55:27.871Z,112.00
2018-06-19T08:56:27.800Z,112.00
2018-06-19T08:57:27.824Z,108.00
2018-06-19T08:58:27.655Z,104.00
2018-06-19T08:59:27.847Z,96.00
2018-06-19T09:00:27.845Z,92.00
2018-06-19T09:01:27.879Z,88.00
2018-06-19T09:02:27.837Z,96.00
2018-06-19T09:03:27.998Z,96.00
2018-06-19T09:04:27.732Z,96.00
2018-06-19T09:05:27.731Z,100.00
2018-06-19T09:06:27.858Z,104.00
2018-06-19T09:07:27.785Z,100.00
2018-06-19T09:08:27.752Z,104.00
2018-06-19T09:09:27.790Z,96.00
2018-06-19T09:10:27.497Z,92.00
2018-06-19T09:11:27.534Z,96.00
2018-06-19T09:12:27.738Z,96.00
2018-06-19T09:13:27.659Z,92.00
2018-06-19T09:14:27.604Z,92.00
2018-06-19T09:15:27.710Z,112.00
2018-06-19T09:16:27.444Z,100.00
2018-06-19T09:17:27.411Z,104.00
2018-06-19T09:18:27.447Z,100.00
2018-06-19T09:19:27.410Z,100.00
2018-06-19T09:20:27.390Z,100.00
2018-06-19T09:21:27.620Z,100.00
2018-06-19T09:22:27.536Z,104.00
2018-06-19T09:23:27.612Z,100.00
2018-06-19T09:24:27.634Z,100.00
2018-06-19T09:25:27.596Z,100.00
2018-06-19T09:26:27.327Z,108.00
2018-06-19T09:27:27.333Z,108.00
2018-06-19T09:28:27.344Z,116.00
2018-06-19T09:29:27.494Z,124.00
2018-06-19T09:30:27.284Z,124.00
2018-06-19T09:31:27.582Z,128.00
2018-06-19T09:32:27.544Z,128.00
2018-06-19T09:33:27.497Z,124.00
2018-06-19T09:34:27.467Z,120.00
2018-06-19T09:35:27.503Z,120.00
2018-06-19T09:36:27.385Z,116.00
2018-06-19T09:37:27.493Z,112.00
2018-06-19T09:38:27.453Z,112.00
2018-06-19T09:39:27.180Z,116.00
2018-06-19T09:40:27.389Z,120.00
2018-06-19T09:41:52.382Z,4100.00
2018-06-19T09:42:52.431Z,4036.00
2018-06-19T09:43:52.606Z,4268.00
2018-06-19T09:44:52.539Z,4780.00
2018-06-19T09:45:52.338Z,5168.00
2018-06-19T09:46:52.589Z,5400.00
2018-06-19T09:47:53.091Z,5712.00
2018-06-19T09:48:52.468Z,5292.00
2018-06-19T09:49:52.515Z,4444.00
2018-06-19T09:50:52.518Z,4104.00
2018-06-19T09:51:52.468Z,4752.00
2018-06-19T09:52:53.302Z,5588.00
2018-06-19T09:53:52.399Z,6568.00
2018-06-19T09:54:52.595Z,7560.00
2018-06-19T09:55:52.376Z,7952.00
2018-06-19T09:56:53.294Z,7804.00
2018-06-19T09:57:52.436Z,8648.00
2018-06-19T09:58:52.439Z,9124.00
2018-06-19T09:59:52.411Z,9340.00
2018-06-19T10:00:52.431Z,10276.00
2018-06-19T10:01:52.150Z,10272.00
2018-06-19T10:02:52.366Z,10628.00
2018-06-19T10:03:52.282Z,11528.00
2018-06-19T10:04:52.995Z,12452.00
2018-06-19T10:05:52.360Z,11600.00
2018-06-19T10:06:53.304Z,10760.00
2018-06-19T10:07:52.364Z,10332.00
2018-06-19T10:08:53.299Z,10036.00
2018-06-19T10:09:52.306Z,10392.00
2018-06-19T10:10:52.326Z,11060.00
2018-06-19T10:11:52.358Z,11352.00
2018-06-19T10:12:52.294Z,11560.00
2018-06-19T10:13:52.188Z,11732.00
2018-06-19T10:14:52.267Z,11468.00
2018-06-19T10:15:52.282Z,12036.00
2018-06-19T10:16:52.781Z,12208.00
2018-06-19T10:17:52.149Z,12116.00
2018-06-19T10:18:52.217Z,11736.00
2018-06-19T10:19:52.215Z,11616.00
2018-06-19T10:20:52.226Z,10924.00
2018-06-19T10:21:52.186Z,9432.00
2018-06-19T10:22:52.164Z,7620.00
2018-06-19T10:23:52.173Z,6952.00
2018-06-19T10:24:52.159Z,6984.00
2018-06-19T10:25:51.954Z,7756.00
2018-06-19T10:26:51.901Z,8564.00
2018-06-19T10:27:52.119Z,8784.00
2018-06-19T10:28:52.116Z,9000.00
2018-06-19T10:29:52.065Z,11292.00
2018-06-19T10:30:52.032Z,12576.00
2018-06-19T10:31:52.014Z,13120.00
2018-06-19T10:32:52.071Z,13848.00
2018-06-19T10:33:52.038Z,14352.00
2018-06-19T10:34:51.983Z,13972.00
2018-06-19T10:35:52.058Z,644.00
2018-06-19T10:36:51.938Z,640.00
2018-06-19T10:37:52.005Z,648.00
2018-06-19T10:38:52.011Z,696.00
2018-06-19T10:39:52.008Z,684.00
2018-06-19T10:40:51.748Z,672.00
2018-06-19T10:41:52.792Z,724.00
2018-06-19T10:42:51.956Z,740.00
2018-06-19T10:43:51.901Z,732.00
2018-06-19T10:44:51.942Z,704.00
2018-06-19T10:45:52.040Z,684.00
2018-06-19T10:46:51.960Z,700.00
2018-06-19T10:47:51.908Z,752.00
2018-06-19T10:48:51.889Z,752.00
2018-06-19T10:49:51.821Z,724.00
2018-06-19T10:50:51.884Z,676.00
2018-06-19T10:51:51.811Z,696.00
2018-06-19T10:52:51.871Z,752.00
2018-06-19T10:53:51.776Z,788.00
2018-06-19T10:54:51.837Z,800.00
2018-06-19T10:55:51.822Z,820.00
2018-06-19T10:56:51.813Z,836.00
2018-06-19T10:57:51.752Z,864.00
2018-06-19T10:58:51.800Z,872.00
2018-06-19T10:59:51.796Z,880.00
2018-06-19T11:00:51.760Z,864.00
2018-06-19T11:01:51.684Z,804.00
2018-06-19T11:02:51.756Z,788.00
2018-06-19T11:03:51.616Z,17536.00
2018-06-19T11:04:51.495Z,14716.00
2018-06-19T11:05:51.486Z,12112.00
2018-06-19T11:06:51.457Z,10368.00
2018-06-19T11:07:51.453Z,9352.00
2018-06-19T11:08:51.708Z,9980.00
2018-06-19T11:09:51.647Z,9900.00
2018-06-19T11:10:51.719Z,8804.00
2018-06-19T11:11:51.659Z,7916.00
2018-06-19T11:12:51.648Z,7264.00
2018-06-19T11:13:51.694Z,6544.00
2018-06-19T11:14:51.643Z,5516.00
2018-06-19T11:15:51.631Z,5244.00
2018-06-19T11:16:51.620Z,5060.00
2018-06-19T11:17:51.347Z,4576.00
2018-06-19T11:18:51.534Z,3912.00
2018-06-19T11:19:51.686Z,3524.00
2018-06-19T11:20:51.599Z,3584.00
2018-06-19T11:21:51.568Z,4120.00
2018-06-19T11:22:51.508Z,4896.00
2018-06-19T11:23:51.558Z,5416.00
2018-06-19T11:24:51.534Z,5764.00
2018-06-19T11:25:51.407Z,5780.00
2018-06-19T11:26:51.421Z,5972.00
2018-06-19T11:27:51.533Z,6192.00
2018-06-19T11:28:51.537Z,6656.00
2018-06-19T11:29:51.410Z,7072.00
2018-06-19T11:30:51.426Z,7320.00
2018-06-19T11:31:51.427Z,7672.00
2018-06-19T11:32:51.281Z,7820.00
2018-06-19T11:33:51.173Z,7944.00
2018-06-19T11:34:51.177Z,8636.00
2018-06-19T11:35:51.407Z,9140.00
2018-06-19T11:36:51.319Z,9656.00
2018-06-19T11:37:51.188Z,10188.00
2018-06-19T11:38:51.383Z,11548.00
2018-06-19T11:39:51.352Z,13764.00
2018-06-19T11:40:51.293Z,15460.00
2018-06-19T11:41:51.319Z,15872.00
2018-06-19T11:42:51.347Z,16512.00
2018-06-19T11:43:51.060Z,16928.00
2018-06-19T11:44:51.247Z,17952.00
2018-06-19T11:45:51.304Z,20256.00
2018-06-19T11:46:51.344Z,22976.00
2018-06-19T11:47:51.298Z,22624.00
2018-06-19T11:48:51.022Z,20448.00
2018-06-19T11:49:51.212Z,18560.00
2018-06-19T11:50:51.275Z,16320.00
2018-06-19T11:51:51.141Z,14812.00
2018-06-19T11:52:51.189Z,13644.00
2018-06-19T11:53:51.210Z,12536.00
2018-06-19T11:54:51.127Z,11888.00
2018-06-19T11:55:51.202Z,11300.00
2018-06-19T11:56:51.254Z,10876.00
2018-06-19T11:57:50.912Z,10676.00
2018-06-19T11:58:51.065Z,10068.00
2018-06-19T11:59:51.110Z,9904.00
2018-06-19T12:00:51.117Z,9752.00
2018-06-19T12:01:51.089Z,9652.00
2018-06-19T12:02:51.066Z,9288.00
2018-06-19T12:03:51.012Z,9708.00
2018-06-19T12:04:51.083Z,12340.00
2018-06-19T12:05:51.080Z,16256.00
2018-06-19T12:06:51.100Z,19168.00
2018-06-19T12:07:50.983Z,17568.00
2018-06-19T12:08:51.050Z,16736.00
2018-06-19T12:09:51.020Z,16800.00
2018-06-19T12:10:51.780Z,15304.00
2018-06-19T12:11:51.041Z,14792.00
2018-06-19T12:12:50.922Z,14880.00
2018-06-19T12:13:51.002Z,14496.00
2018-06-19T12:14:51.045Z,14536.00
2018-06-19T12:15:50.953Z,13680.00
2018-06-19T12:16:50.952Z,15504.00
2018-06-19T12:17:50.983Z,13976.00
2018-06-19T12:18:50.937Z,12048.00
2018-06-19T12:19:50.908Z,11960.00
2018-06-19T12:20:50.908Z,11228.00
2018-06-19T12:21:50.931Z,9528.00
2018-06-19T12:22:50.905Z,7824.00
2018-06-19T12:23:50.666Z,7060.00
2018-06-19T12:24:50.764Z,6376.00
2018-06-19T12:25:50.868Z,5708.00
2018-06-19T12:26:50.855Z,5292.00
2018-06-19T12:27:50.837Z,4648.00
2018-06-19T12:28:50.830Z,3948.00
2018-06-19T12:29:50.569Z,4172.00
2018-06-19T12:30:50.804Z,4772.00
2018-06-19T12:31:50.807Z,5324.00
2018-06-19T12:32:50.832Z,5500.00
2018-06-19T12:33:50.765Z,5072.00
2018-06-19T12:34:50.746Z,4920.00
2018-06-19T12:35:50.775Z,5112.00
2018-06-19T12:36:50.730Z,5272.00
2018-06-19T12:37:50.745Z,5440.00
2018-06-19T12:38:50.696Z,5780.00
2018-06-19T12:39:50.822Z,6096.00
2018-06-19T12:40:50.666Z,6600.00
2018-06-19T12:41:50.680Z,6944.00
2018-06-19T12:42:50.697Z,7512.00
2018-06-19T12:43:50.489Z,8176.00
2018-06-19T12:44:50.641Z,9048.00
2018-06-19T12:45:50.403Z,9572.00
2018-06-19T12:46:50.652Z,9756.00
2018-06-19T12:47:50.639Z,9748.00
2018-06-19T12:48:50.631Z,9228.00
2018-06-19T12:49:50.738Z,8868.00
2018-06-19T12:50:50.570Z,8824.00
2018-06-19T12:51:50.513Z,8948.00
2018-06-19T12:52:50.466Z,8968.00
2018-06-19T12:53:50.541Z,8480.00
2018-06-19T12:54:50.575Z,7580.00
2018-06-19T12:55:50.521Z,6812.00
2018-06-19T12:56:50.276Z,6388.00
2018-06-19T12:57:50.270Z,6104.00
2018-06-19T12:58:50.467Z,6196.00
2018-06-19T12:59:50.431Z,6352.00
2018-06-19T13:00:50.497Z,5620.00
2018-06-19T13:01:50.457Z,5112.00
2018-06-19T13:02:50.477Z,5152.00
2018-06-19T13:03:50.473Z,5560.00
2018-06-19T13:04:50.364Z,6424.00
2018-06-19T13:05:50.375Z,7156.00
2018-06-19T13:06:50.439Z,7084.00
2018-06-19T13:07:50.418Z,6972.00
2018-06-19T13:08:50.140Z,6820.00
2018-06-19T13:09:50.380Z,6840.00
2018-06-19T13:10:50.129Z,6536.00
2018-06-19T13:11:50.296Z,6208.00
2018-06-19T13:12:50.368Z,6312.00
2018-06-19T13:13:50.379Z,6708.00
2018-06-19T13:14:50.299Z,7304.00
2018-06-19T13:15:50.284Z,8592.00
2018-06-19T13:16:50.298Z,10568.00
2018-06-19T13:17:50.243Z,12420.00
2018-06-19T13:18:50.329Z,13800.00
2018-06-19T13:19:50.256Z,14952.00
2018-06-19T13:20:50.254Z,16128.00
2018-06-19T13:21:50.188Z,18016.00
2018-06-19T13:22:50.263Z,20704.00
2018-06-19T13:23:50.204Z,23840.00
2018-06-19T13:24:50.758Z,26560.00
2018-06-19T13:25:50.217Z,26976.00
2018-06-19T13:26:50.199Z,21056.00
2018-06-19T13:27:50.175Z,17760.00
2018-06-19T13:28:50.108Z,16704.00
2018-06-19T13:29:50.196Z,14296.00
2018-06-19T13:30:50.089Z,11832.00
2018-06-19T13:31:49.897Z,10620.00
2018-06-19T13:32:50.763Z,10628.00
2018-06-19T13:33:50.151Z,11136.00
2018-06-19T13:34:50.218Z,12220.00
2018-06-19T13:35:50.121Z,13496.00
2018-06-19T13:36:50.097Z,14776.00
2018-06-19T13:37:50.106Z,16576.00
2018-06-19T13:38:50.046Z,18112.00
2018-06-19T13:39:50.082Z,18272.00
2018-06-19T13:40:50.068Z,19136.00
2018-06-19T13:41:50.034Z,24960.00
2018-06-19T13:42:49.785Z,23072.00
2018-06-19T13:43:49.999Z,22496.00
2018-06-19T13:44:50.136Z,22304.00
2018-06-19T13:45:50.058Z,23008.00
2018-06-19T13:46:49.912Z,24512.00
2018-06-19T13:47:49.895Z,25120.00
2018-06-19T13:48:49.964Z,23232.00
2018-06-19T13:49:49.921Z,17632.00
2018-06-19T13:50:49.944Z,12620.00
2018-06-19T13:51:49.910Z,10064.00
2018-06-19T13:52:49.942Z,8980.00
2018-06-19T13:53:49.900Z,8768.00
2018-06-19T13:54:49.953Z,8672.00
2018-06-19T13:55:49.841Z,7864.00
2018-06-19T13:56:49.870Z,7836.00
2018-06-19T13:57:49.848Z,8316.00
2018-06-19T13:58:49.839Z,8780.00
2018-06-19T13:59:49.644Z,9568.00
2018-06-19T14:00:49.813Z,10572.00
2018-06-19T14:01:49.838Z,11452.00
2018-06-19T14:02:49.811Z,11240.00
2018-06-19T14:03:49.809Z,10976.00
2018-06-19T14:04:49.933Z,10088.00
2018-06-19T14:05:49.585Z,8900.00
2018-06-19T14:06:49.760Z,7364.00
2018-06-19T14:07:49.922Z,6532.00
2018-06-19T14:08:49.688Z,5652.00
2018-06-19T14:09:49.746Z,5116.00
2018-06-19T14:10:49.740Z,5308.00
2018-06-19T14:11:49.719Z,5180.00
2018-06-19T14:12:49.703Z,4924.00
2018-06-19T14:13:49.696Z,5048.00
2018-06-19T14:14:49.679Z,5648.00
2018-06-19T14:15:49.653Z,6596.00
2018-06-19T14:16:49.771Z,7980.00
2018-06-19T14:17:49.838Z,9224.00
2018-06-19T14:18:49.655Z,10404.00
2018-06-19T14:19:49.590Z,11456.00
2018-06-19T14:20:49.697Z,12536.00
2018-06-19T14:21:49.675Z,13448.00
2018-06-19T14:22:49.615Z,13740.00
2018-06-19T14:23:49.339Z,13628.00
2018-06-19T14:24:49.585Z,13132.00
2018-06-19T14:25:49.560Z,12876.00
2018-06-19T14:26:49.589Z,13036.00
2018-06-19T14:27:49.561Z,13552.00
2018-06-19T14:28:49.578Z,14204.00
2018-06-19T14:29:49.449Z,14616.00
2018-06-19T14:30:49.446Z,14788.00
2018-06-19T14:31:49.491Z,15288.00
2018-06-19T14:32:49.434Z,16032.00
2018-06-19T14:33:49.505Z,16576.00
2018-06-19T14:34:49.463Z,17088.00
2018-06-19T14:35:49.463Z,17568.00
2018-06-19T14:36:49.582Z,19008.00
2018-06-19T14:37:49.453Z,18656.00
2018-06-19T14:38:49.358Z,17728.00
2018-06-19T14:39:49.415Z,16512.00
2018-06-19T14:40:49.464Z,14576.00
2018-06-19T14:41:49.375Z,12988.00
2018-06-19T14:42:49.163Z,12060.00
2018-06-19T14:43:49.405Z,11452.00
2018-06-19T14:44:49.361Z,11080.00
2018-06-19T14:45:49.388Z,11040.00
2018-06-19T14:46:49.666Z,11296.00
2018-06-19T14:47:49.394Z,11692.00
2018-06-19T14:48:49.315Z,12152.00
2018-06-19T14:49:49.279Z,12576.00
2018-06-19T14:50:49.257Z,13036.00
2018-06-19T14:51:49.050Z,13700.00
2018-06-19T14:52:49.290Z,14324.00
2018-06-19T14:53:49.263Z,14420.00
2018-06-19T14:54:49.164Z,14048.00
2018-06-19T14:55:49.229Z,13772.00
2018-06-19T14:56:49.213Z,13556.00
2018-06-19T14:57:49.231Z,13220.00
2018-06-19T14:58:49.277Z,12920.00
2018-06-19T14:59:49.196Z,12596.00
2018-06-19T15:00:49.181Z,12224.00
2018-06-19T15:01:49.107Z,12076.00
2018-06-19T15:02:49.161Z,12088.00
2018-06-19T15:03:48.910Z,12116.00
2018-06-19T15:04:49.110Z,12064.00
2018-06-19T15:05:49.126Z,12028.00
2018-06-19T15:06:49.107Z,12068.00
2018-06-19T15:07:49.106Z,12292.00
2018-06-19T15:08:49.101Z,12756.00
2018-06-19T15:09:49.041Z,13524.00
2018-06-19T15:10:49.067Z,14868.00
2018-06-19T15:11:49.004Z,16032.00
2018-06-19T15:12:49.044Z,16864.00
2018-06-19T15:13:49.019Z,17248.00
2018-06-19T15:14:48.958Z,17664.00
2018-06-19T15:15:48.819Z,17888.00
2018-06-19T15:16:48.978Z,18016.00
2018-06-19T15:17:48.995Z,18336.00
2018-06-19T15:18:48.800Z,18560.00
2018-06-19T15:19:48.904Z,19008.00
2018-06-19T15:20:48.976Z,19392.00
2018-06-19T15:21:48.735Z,20544.00
2018-06-19T15:22:48.957Z,22400.00
2018-06-19T15:23:48.931Z,25280.00
2018-06-19T15:24:48.945Z,21536.00
2018-06-19T15:25:48.973Z,20096.00
2018-06-19T15:26:48.883Z,19168.00
2018-06-19T15:27:48.890Z,18592.00
2018-06-19T15:28:48.888Z,17696.00
